EDDR/SCN METAR and TAF weather

Enter ICAO airport designator
Station Type Date Time Source
EDDR METAR 2022/01/23 11:50 UTC NOAA

EDDR 231150Z 06005KT 9999 FEW016 BKN026 05/01 Q1034 NOSIG


Station Type Date Time Source
EDDR Decoded METAR 2022/01/23 11:50 UTC NOAA

Saarbruecken / Ensheim, Germany (EDDR) 49-13N 007-07E 320M
Jan 23, 2022 - 06:50 AM EST / 2022.01.23 1150 UTC
Wind: from the ENE (060 degrees) at 6 MPH (5 KT):0
Visibility: greater than 7 mile(s):0
Sky conditions: mostly cloudy
Temperature: 41 F (5 C)
Dew Point: 33 F (1 C)
Relative Humidity: 75%
Pressure (altimeter): 30.53 in. Hg (1034 hPa)
ob: EDDR 231150Z 06005KT 9999 FEW016 BKN026 05/01 Q1034 NOSIG
cycle: 12

Station Type Date Time Source
EDDR TAF 2022/01/23 12:27 UTC NOAA

TAF EDDR 231100Z 2312/2412 05006KT 9999 BKN025 PROB30
TEMPO 2402/2407 1200 BCFG

Example: see airport list